Weather at Billund Airport

Public forecast

Using degrees Celsius for public forecast. Weather courtesy of forecast.io.

Current aviation weather report (METAR) for Billund Airport

Report is more than 6 hours old.

2022/11/14 15:20 (retrieved 2 years ago)

EKBI 141520Z AUTO 10013KT 9999 OVC011/// 08/07 Q1015

Aviation forecast (TAF) for Billund Airport

Forecast is more than 12 hours old.

2023/02/22 18:00 (retrieved 1 year ago)

TAF EKBI 221705Z 2218/2318 12008KT 9999 BKN025 BECMG 2218/2220 BKN008 TEMPO 2220/2302 1200 RADZ BR BKN003 BECMG 2302/2304 0300 FG BKN001 TEMPO 2304/2310 3000 RADZ BR SCT002 BKN008 BECMG 2310/2312 30012KT 9999 NSW SCT015